Time;durP1;ratioP1;P1;durP2;ratioP2;P2;SDS_P1;SDS_P2;PMS_P1;PMS_P2;Temp;Humidity;BMP_temperature;BMP_pressure;BME280_temperature;BME280_humidity;BME280_pressure;Samples;Min_cycle;Max_cycle;Signal;HPM_P1;HPM_P2
2021/09/13 00:02:44;;;;;;;3.33;2.75;;;;;;;18.74;62.24;100338.59;10287709;28;20527;-61
2021/09/13 00:07:46;;;;;;;2.67;2.30;;;;;;;18.72;62.31;100333.38;10297113;28;20046;-62
2021/09/13 00:12:48;;;;;;;4.47;2.63;;;;;;;18.70;62.13;100337.25;10299618;28;20050;-63
2021/09/13 00:17:50;;;;;;;5.38;3.92;;;;;;;18.67;62.58;100327.66;10292773;28;20066;-61
2021/09/13 00:22:52;;;;;;;3.22;2.90;;;;;;;18.57;62.67;100337.81;10297424;28;20046;-63
2021/09/13 00:27:54;;;;;;;3.88;2.45;;;;;;;18.52;62.43;100332.09;10301377;28;20472;-62
2021/09/13 00:32:55;;;;;;;2.85;2.65;;;;;;;18.47;62.27;100326.38;10306129;28;20050;-63
2021/09/13 00:37:57;;;;;;;3.25;2.42;;;;;;;18.42;61.77;100336.84;10298045;28;20093;-63
2021/09/13 00:43:01;;;;;;;4.05;2.65;;;;;;;18.29;62.08;100321.22;10299882;28;20069;-62
2021/09/13 00:48:03;;;;;;;4.03;2.53;;;;;;;18.25;62.62;100336.88;10306106;28;20054;-63
2021/09/13 00:53:05;;;;;;;5.72;2.63;;;;;;;18.18;63.16;100333.19;10303785;28;20112;-63
2021/09/13 00:58:25;;;;;;;2.97;2.28;;;;;;;18.13;63.59;100331.00;10282659;28;20559;-62
2021/09/13 01:03:26;;;;;;;4.32;2.85;;;;;;;18.06;63.91;100323.78;10261791;28;20050;-62
2021/09/13 01:08:28;;;;;;;3.70;2.72;;;;;;;18.00;64.16;100315.38;10252296;28;20051;-63
2021/09/13 01:13:30;;;;;;;4.65;3.03;;;;;;;17.98;64.40;100313.84;10286799;28;20104;-62
2021/09/13 01:18:32;;;;;;;3.20;2.75;;;;;;;17.95;64.46;100317.72;10293034;28;20133;-62
2021/09/13 01:23:35;;;;;;;4.85;3.22;;;;;;;17.91;64.03;100321.78;10261204;28;20087;-62
2021/09/13 01:28:37;;;;;;;2.83;2.45;;;;;;;17.84;63.99;100321.56;10291180;28;20106;-61
2021/09/13 01:33:38;;;;;;;3.30;2.80;;;;;;;17.72;65.27;100319.41;10279642;28;20128;-61
2021/09/13 01:38:40;;;;;;;4.97;3.03;;;;;;;17.65;65.61;100322.78;10298527;28;20050;-62
2021/09/13 01:43:41;;;;;;;3.95;3.15;;;;;;;17.65;66.02;100324.63;10284743;28;20576;-61
2021/09/13 01:48:42;;;;;;;3.80;3.42;;;;;;;17.55;66.50;100321.25;10292575;28;20319;-62
2021/09/13 01:53:44;;;;;;;4.70;3.17;;;;;;;17.54;67.09;100315.03;10295679;28;20711;-62
2021/09/13 01:58:46;;;;;;;3.63;3.33;;;;;;;17.45;66.96;100321.41;10291180;28;20144;-61
2021/09/13 02:03:47;;;;;;;5.00;3.17;;;;;;;17.30;67.45;100315.84;10288105;28;20129;-61
2021/09/13 02:08:49;;;;;;;3.88;3.10;;;;;;;17.28;68.00;100316.00;10292782;28;20109;-63
2021/09/13 02:13:50;;;;;;;4.07;3.45;;;;;;;17.30;67.85;100319.38;10292404;28;20206;-64
2021/09/13 02:18:52;;;;;;;3.65;3.28;;;;;;;17.28;67.93;100321.41;10293004;28;20074;-64
2021/09/13 02:23:53;;;;;;;4.40;3.65;;;;;;;17.18;68.19;100325.25;10296475;28;20104;-65
2021/09/13 02:28:55;;;;;;;5.13;3.50;;;;;;;17.12;68.66;100321.34;10290751;28;20492;-66
2021/09/13 02:33:56;;;;;;;4.93;3.75;;;;;;;17.16;69.08;100322.72;10288240;28;20137;-63
2021/09/13 02:38:58;;;;;;;4.65;4.25;;;;;;;17.17;68.75;100329.75;10295322;28;20069;-63
2021/09/13 02:43:59;;;;;;;4.63;3.67;;;;;;;17.17;68.64;100328.94;10293522;28;20070;-63
2021/09/13 02:49:00;;;;;;;4.03;3.63;;;;;;;17.23;68.43;100328.28;10291255;28;20145;-64
2021/09/13 02:54:02;;;;;;;4.97;3.50;;;;;;;17.19;68.18;100326.91;10287838;28;20042;-63
2021/09/13 02:59:03;;;;;;;3.63;3.30;;;;;;;17.11;67.61;100330.44;10282250;28;20050;-63
2021/09/13 03:04:05;;;;;;;4.50;3.65;;;;;;;17.04;67.90;100326.69;10290152;28;20498;-64
2021/09/13 03:09:06;;;;;;;4.80;3.88;;;;;;;16.93;68.04;100322.47;10263390;28;20054;-64
2021/09/13 03:14:08;;;;;;;4.10;3.70;;;;;;;16.91;68.13;100322.63;10298166;28;20070;-63
2021/09/13 03:19:09;;;;;;;4.65;3.58;;;;;;;16.91;67.93;100324.50;10269063;28;20043;-63
2021/09/13 03:24:11;;;;;;;5.28;3.63;;;;;;;16.88;67.94;100322.13;10254107;28;20134;-62
2021/09/13 03:29:12;;;;;;;6.07;3.53;;;;;;;16.81;67.71;100329.97;10264623;28;20109;-65
2021/09/13 03:34:13;;;;;;;5.38;3.97;;;;;;;16.77;67.79;100328.63;10254637;28;20102;-62
2021/09/13 03:39:15;;;;;;;3.92;3.33;;;;;;;16.70;67.77;100325.72;10257921;28;20074;-64
2021/09/13 03:44:16;;;;;;;3.75;3.20;;;;;;;16.70;67.90;100331.09;10298932;28;20536;-61
2021/09/13 03:49:19;;;;;;;4.13;3.70;;;;;;;16.70;67.78;100319.50;10301150;28;20148;-62
2021/09/13 03:54:20;;;;;;;4.45;3.80;;;;;;;16.63;67.71;100315.78;10278156;28;20109;-62
2021/09/13 03:59:22;;;;;;;6.05;4.05;;;;;;;16.57;67.49;100317.25;10258774;28;20075;-62
2021/09/13 04:04:26;;;;;;;5.22;3.25;;;;;;;16.53;67.65;100313.22;10250500;28;20062;-65
2021/09/13 04:14:32;;;;;;;6.82;3.88;;;;;;;16.56;67.30;100315.59;10264837;28;20484;-62
2021/09/13 04:19:35;;;;;;;8.02;4.63;;;;;;;16.48;67.85;100308.31;10291112;28;20077;-62
2021/09/13 04:24:37;;;;;;;4.55;4.00;;;;;;;16.46;67.67;100315.72;10293755;28;20133;-63
2021/09/13 04:29:38;;;;;;;5.40;3.95;;;;;;;16.46;67.59;100310.34;10291945;28;20120;-63
2021/09/13 04:34:40;;;;;;;6.75;4.35;;;;;;;16.42;68.31;100314.34;10291049;28;20121;-61
2021/09/13 04:39:42;;;;;;;4.85;3.78;;;;;;;16.35;68.66;100324.03;10269355;28;20043;-61
2021/09/13 04:44:43;;;;;;;4.65;4.15;;;;;;;16.29;69.23;100311.25;10262488;28;20274;-61
2021/09/13 04:49:45;;;;;;;5.38;4.72;;;;;;;16.31;69.17;100317.31;10265227;28;20126;-61
2021/09/13 04:54:46;;;;;;;5.35;4.70;;;;;;;16.18;70.30;100318.59;10261991;28;20109;-61
2021/09/13 04:59:47;;;;;;;5.38;4.30;;;;;;;16.17;70.17;100316.03;10292721;28;20089;-62
2021/09/13 05:04:49;;;;;;;6.20;4.38;;;;;;;16.07;70.16;100316.16;10248045;28;20130;-62
2021/09/13 05:09:50;;;;;;;6.35;4.03;;;;;;;16.07;70.00;100313.47;10247674;28;20067;-61
2021/09/13 05:14:52;;;;;;;5.40;4.35;;;;;;;16.12;69.77;100340.69;10291155;28;20054;-61
2021/09/13 05:19:53;;;;;;;6.47;4.85;;;;;;;16.09;69.86;100335.63;10290199;28;20050;-61
2021/09/13 05:24:55;;;;;;;5.13;4.50;;;;;;;16.10;69.93;100337.31;10291508;28;20043;-61
2021/09/13 05:29:56;;;;;;;4.70;4.18;;;;;;;16.07;70.14;100326.91;10287694;28;20054;-61
2021/09/13 05:34:58;;;;;;;4.95;4.15;;;;;;;16.03;69.64;100338.94;10285897;28;20074;-61
2021/09/13 05:39:59;;;;;;;9.00;4.80;;;;;;;15.96;70.26;100333.38;10286317;28;20050;-62
2021/09/13 05:45:01;;;;;;;5.60;4.90;;;;;;;16.10;69.97;100353.44;10301639;28;20054;-61
2021/09/13 05:50:03;;;;;;;5.13;4.68;;;;;;;16.29;70.22;100363.13;10295796;28;20431;-61
2021/09/13 05:55:04;;;;;;;5.20;4.70;;;;;;;16.36;69.57;100355.28;10292947;28;20108;-63
2021/09/13 06:00:07;;;;;;;6.40;4.15;;;;;;;16.38;69.59;100351.44;10299139;28;20069;-61
2021/09/13 06:05:09;;;;;;;5.50;4.95;;;;;;;16.43;69.22;100361.69;10259526;28;20046;-56
2021/09/13 06:10:10;;;;;;;7.22;4.80;;;;;;;16.52;69.22;100363.44;10252189;28;20191;-57
2021/09/13 06:15:12;;;;;;;10.80;5.78;;;;;;;16.63;68.46;100369.53;10258306;28;20062;-57
2021/09/13 06:20:14;;;;;;;7.65;4.88;;;;;;;16.78;67.94;100368.78;10238816;28;20059;-57
2021/09/13 06:25:16;;;;;;;5.47;4.60;;;;;;;16.98;67.31;100378.44;10238594;28;20074;-57
2021/09/13 06:30:17;;;;;;;9.90;4.18;;;;;;;17.15;66.97;100377.50;10265988;28;20492;-62
2021/09/13 06:35:20;;;;;;;5.38;4.82;;;;;;;17.28;66.45;100372.50;10268795;28;20056;-60
2021/09/13 06:40:21;;;;;;;6.13;4.90;;;;;;;17.30;66.56;100383.94;10252661;28;20060;-61
2021/09/13 06:45:23;;;;;;;5.20;4.30;;;;;;;17.48;66.10;100391.03;10246611;28;20046;-62
2021/09/13 06:50:27;;;;;;;5.53;4.45;;;;;;;17.68;65.76;100383.50;10280753;28;20081;-63
2021/09/13 06:55:29;;;;;;;5.75;4.57;;;;;;;17.84;65.30;100371.91;10280128;28;20253;-60
2021/09/13 07:00:31;;;;;;;6.75;4.07;;;;;;;18.04;65.36;100377.81;10280500;28;20571;-61
2021/09/13 07:05:32;;;;;;;6.15;3.85;;;;;;;18.27;64.54;100379.81;10277967;28;20453;-63
2021/09/13 07:10:34;;;;;;;5.40;4.70;;;;;;;18.43;63.87;100390.56;10281116;28;20086;-61
2021/09/13 07:15:35;;;;;;;5.45;4.45;;;;;;;18.61;62.70;100387.66;10282064;28;20129;-62
2021/09/13 07:20:37;;;;;;;7.22;3.70;;;;;;;18.85;61.82;100400.25;10278510;28;20109;-61
2021/09/13 07:25:38;;;;;;;5.63;4.38;;;;;;;19.10;61.32;100396.63;10277062;28;20082;-61
2021/09/13 07:30:40;;;;;;;4.45;3.50;;;;;;;19.16;60.85;100406.72;10279046;28;20204;-63
2021/09/13 07:35:41;;;;;;;5.90;4.28;;;;;;;19.29;60.56;100401.59;10278614;28;20159;-62
2021/09/13 07:40:43;;;;;;;5.38;3.70;;;;;;;19.56;60.60;100402.09;10277818;28;20178;-63
2021/09/13 07:45:44;;;;;;;4.20;3.53;;;;;;;19.62;60.61;100401.34;10278478;28;20126;-60
2021/09/13 07:50:47;;;;;;;6.13;3.92;;;;;;;19.85;59.75;100417.63;10274360;28;20058;-61
2021/09/13 07:55:49;;;;;;;4.57;3.60;;;;;;;20.12;59.70;100421.63;10248929;28;20063;-61
2021/09/13 08:00:50;;;;;;;6.07;3.28;;;;;;;20.40;58.69;100425.59;10237369;28;20130;-62
2021/09/13 08:05:52;;;;;;;4.85;4.35;;;;;;;20.56;58.06;100420.03;10266149;28;20328;-61
2021/09/13 08:10:53;;;;;;;6.07;4.22;;;;;;;20.71;57.69;100420.06;10280909;28;20133;-61
2021/09/13 08:15:55;;;;;;;6.10;4.05;;;;;;;20.70;57.70;100421.09;10287379;28;20116;-60
2021/09/13 08:20:56;;;;;;;6.10;5.50;;;;;;;21.03;56.69;100420.69;10287128;28;20076;-60
2021/09/13 08:25:58;;;;;;;5.70;4.32;;;;;;;21.41;55.25;100423.28;10273937;28;20117;-62
2021/09/13 08:31:00;;;;;;;5.18;4.65;;;;;;;21.71;55.15;100428.63;10279704;28;20118;-63
2021/09/13 08:36:02;;;;;;;5.93;4.88;;;;;;;22.18;53.97;100419.06;10250446;28;20073;-62
2021/09/13 08:41:04;;;;;;;6.20;5.40;;;;;;;22.71;52.27;100428.66;10259404;28;20106;-60
2021/09/13 08:46:09;;;;;;;6.10;5.28;;;;;;;22.85;51.95;100446.69;10257515;28;20121;-64
2021/09/13 08:56:16;;;;;;;6.22;5.38;;;;;;;22.91;52.29;100437.75;10254283;28;20062;-61
2021/09/13 09:01:18;;;;;;;6.20;5.38;;;;;;;23.00;51.95;100437.56;10279487;28;20649;-61
2021/09/13 09:06:41;;;;;;;9.05;5.60;;;;;;;23.11;51.43;100450.63;10244380;28;20058;-60
2021/09/13 09:12:06;;;;;;;4.22;3.88;;;;;;;23.35;51.54;100434.84;10275533;28;20144;-62
2021/09/13 09:17:13;;;;;;;7.07;4.65;;;;;;;23.85;49.79;100440.00;10281023;28;20168;-62
2021/09/13 09:22:26;;;;;;;5.22;4.80;;;;;;;24.09;48.85;100446.75;10283177;28;20074;-61
2021/09/13 09:27:28;;;;;;;;;;;;;;;24.32;48.07;100430.88;10284872;28;22354;-62
2021/09/13 09:32:30;;;;;;;8.32;4.47;;;;;;;24.23;48.14;100440.28;10260451;28;19985;-61
2021/09/13 09:37:41;;;;;;;5.60;5.03;;;;;;;24.75;47.14;100423.31;10255367;28;20061;-63
2021/09/13 09:42:45;;;;;;;6.13;5.57;;;;;;;24.89;46.38;100430.38;10256189;28;20073;-61
2021/09/13 09:48:08;;;;;;;7.70;4.97;;;;;;;25.65;44.93;100430.72;10282452;28;20140;-64
2021/09/13 09:53:18;;;;;;;8.50;6.18;;;;;;;25.86;44.69;100429.53;10263435;28;21002;-63
2021/09/13 09:58:19;;;;;;;5.80;4.28;;;;;;;25.93;44.51;100424.88;10259148;28;20516;-62
2021/09/13 10:03:29;;;;;;;5.93;4.22;;;;;;;26.93;42.87;100428.63;10259131;28;20130;-63
2021/09/13 10:08:31;;;;;;;6.63;4.43;;;;;;;28.13;40.13;100416.06;10249330;28;20182;-63
2021/09/13 10:13:33;;;;;;;4.63;4.13;;;;;;;30.52;34.20;100404.91;10237976;28;20098;-62
2021/09/13 10:18:34;;;;;;;4.47;3.75;;;;;;;33.22;29.71;100402.44;10238721;28;20118;-62
2021/09/13 10:23:36;;;;;;;5.03;3.72;;;;;;;33.50;28.85;100400.31;10256331;28;21330;-65
2021/09/13 10:29:16;;;;;;;5.25;3.22;;;;;;;32.04;30.56;100397.84;10258910;28;20139;-63
2021/09/13 10:34:23;;;;;;;4.53;2.80;;;;;;;31.97;30.16;100388.97;10260246;28;20579;-62
2021/09/13 10:39:58;;;;;;;3.35;2.30;;;;;;;33.71;27.80;100377.13;10251385;28;20062;-63
2021/09/13 10:45:39;;;;;;;3.38;3.05;;;;;;;37.39;22.44;100378.84;10263949;28;20116;-63
2021/09/13 10:51:09;;;;;;;3.27;2.37;;;;;;;39.92;19.42;100363.50;10258130;28;20059;-62
2021/09/13 10:56:24;;;;;;;3.13;2.75;;;;;;;41.54;17.49;100370.59;10258294;28;20416;-63
2021/09/13 11:01:27;;;;;;;3.90;2.15;;;;;;;42.75;16.38;100351.81;10252111;28;20042;-61
2021/09/13 11:06:38;;;;;;;3.28;1.90;;;;;;;43.28;15.94;100357.03;10263527;28;20141;-61
2021/09/13 11:11:54;;;;;;;4.10;1.60;;;;;;;44.47;15.36;100339.59;10243712;28;20058;-61
2021/09/13 11:16:58;;;;;;;3.13;1.70;;;;;;;44.10;14.73;100336.78;10245385;28;20138;-61
2021/09/13 11:22:05;;;;;;;2.42;1.50;;;;;;;44.05;14.10;100337.00;10278208;28;20077;-62
2021/09/13 11:27:13;;;;;;;3.05;1.98;;;;;;;45.08;13.90;100340.72;10275652;28;20054;-62
2021/09/13 11:32:16;;;;;;;1.73;1.20;;;;;;;45.41;13.24;100342.47;10277611;28;20496;-63
2021/09/13 11:37:33;;;;;;;1.90;1.17;;;;;;;46.36;12.85;100334.19;10278199;28;20108;-63
2021/09/13 11:42:54;;;;;;;1.27;1.15;;;;;;;47.06;11.57;100318.47;10260212;28;20055;-62
2021/09/13 11:48:05;;;;;;;3.15;1.80;;;;;;;47.53;11.57;100322.22;10248394;28;20141;-60
2021/09/13 11:53:13;;;;;;;2.03;1.05;;;;;;;47.58;11.04;100315.47;10246341;28;20061;-61
2021/09/13 11:58:16;;;;;;;3.38;1.30;;;;;;;47.87;11.12;100310.38;10290051;28;20137;-60
2021/09/13 12:03:17;;;;;;;1.85;0.88;;;;;;;48.70;10.42;100312.50;10287346;28;20055;-63
2021/09/13 12:08:22;;;;;;;1.95;0.90;;;;;;;48.96;10.34;100306.00;10274935;28;20137;-62
2021/09/13 12:13:24;;;;;;;1.83;1.00;;;;;;;48.65;9.95;100310.00;10285895;28;20515;-62
2021/09/13 12:18:29;;;;;;;1.90;1.08;;;;;;;48.45;9.78;100307.31;10286945;28;20046;-63
2021/09/13 12:23:33;;;;;;;3.42;1.08;;;;;;;47.99;10.24;100306.56;10261949;28;20078;-63
2021/09/13 12:28:36;;;;;;;2.15;1.10;;;;;;;47.07;11.30;100294.75;10264848;28;20047;-60
2021/09/13 12:33:49;;;;;;;1.35;0.80;;;;;;;47.02;10.78;100295.03;10288563;28;20077;-60
2021/09/13 12:38:52;;;;;;;1.27;0.82;;;;;;;47.79;11.05;100295.31;10258764;28;20560;-62
2021/09/13 12:43:54;;;;;;;3.05;0.93;;;;;;;46.45;10.78;100283.31;10245476;28;20051;-61
2021/09/13 12:49:01;;;;;;;0.90;0.82;;;;;;;45.94;11.49;100281.28;10268830;28;20585;-62
2021/09/13 12:54:05;;;;;;;1.52;0.98;;;;;;;45.86;12.08;100274.66;10264886;28;20103;-62
2021/09/13 12:59:09;;;;;;;2.75;1.10;;;;;;;42.69;14.31;100263.63;10249265;28;20054;-60
2021/09/13 13:04:12;;;;;;;1.55;1.35;;;;;;;41.50;15.39;100255.91;10253296;28;20074;-61
2021/09/13 13:09:17;;;;;;;1.77;1.00;;;;;;;41.77;15.43;100243.53;10279799;28;20928;-60
2021/09/13 13:14:18;;;;;;;2.53;1.40;;;;;;;39.98;16.04;100245.22;10281426;28;20105;-60
2021/09/13 13:19:20;;;;;;;1.33;0.98;;;;;;;38.01;18.32;100238.97;10289200;28;20104;-61
2021/09/13 13:24:22;;;;;;;1.67;1.10;;;;;;;36.63;20.09;100231.78;10266817;28;20129;-60
2021/09/13 13:29:25;;;;;;;3.25;1.20;;;;;;;35.91;21.50;100230.72;10278277;28;20104;-60
2021/09/13 13:34:30;;;;;;;1.90;1.00;;;;;;;35.24;21.84;100211.13;10282276;28;20069;-60
2021/09/13 13:39:31;;;;;;;2.58;1.17;;;;;;;34.55;22.51;100224.00;10260753;28;20585;-61
2021/09/13 13:44:33;;;;;;;2.95;1.25;;;;;;;33.43;23.64;100205.50;10261795;28;20042;-60
2021/09/13 13:49:34;;;;;;;2.08;1.45;;;;;;;32.94;24.37;100220.66;10245283;28;20456;-61
2021/09/13 13:54:36;;;;;;;3.42;1.42;;;;;;;32.84;24.70;100212.38;10245763;28;20114;-62
2021/09/13 13:59:38;;;;;;;1.88;1.77;;;;;;;32.38;25.02;100224.06;10246694;28;20065;-62
2021/09/13 14:04:39;;;;;;;2.33;1.70;;;;;;;32.15;26.32;100211.56;10276871;28;20177;-62
2021/09/13 14:09:41;;;;;;;3.25;1.80;;;;;;;31.58;25.87;100215.91;10240472;28;20051;-63
2021/09/13 14:14:42;;;;;;;2.25;1.60;;;;;;;30.84;27.31;100217.41;10258341;28;20726;-63
2021/09/13 14:19:44;;;;;;;;;;;;;;;30.62;28.05;100215.53;10239682;28;21640;-63
2021/09/13 14:24:45;;;;;;;;;;;;;;;30.04;28.81;100215.09;10264182;28;20442;-62
2021/09/13 14:29:47;;;;;;;2.57;2.27;;;;;;;29.84;28.96;100218.34;10240147;28;19930;-62
2021/09/13 14:34:48;;;;;;;2.25;1.80;;;;;;;29.74;29.05;100216.28;10254509;28;20471;-62
2021/09/13 14:39:50;;;;;;;2.78;1.77;;;;;;;29.59;29.69;100214.13;10251398;28;20218;-62
2021/09/13 14:44:51;;;;;;;3.45;1.98;;;;;;;29.46;30.21;100209.00;10249161;28;20182;-63
2021/09/13 14:49:53;;;;;;;2.10;1.90;;;;;;;29.26;30.38;100218.53;10259158;28;20089;-62
2021/09/13 14:54:54;;;;;;;2.10;1.90;;;;;;;29.01;30.66;100207.94;10242705;28;20716;-62
2021/09/13 14:59:55;;;;;;;2.30;2.10;;;;;;;28.79;31.34;100209.72;10256547;28;20137;-62
2021/09/13 15:04:58;;;;;;;4.33;2.07;;;;;;;28.44;31.24;100205.19;10249688;28;20184;-62
2021/09/13 15:09:59;;;;;;;3.67;2.15;;;;;;;28.10;32.54;100205.88;10239700;28;20409;-62
2021/09/13 15:15:01;;;;;;;2.28;2.03;;;;;;;27.94;32.47;100201.94;10236556;28;20129;-65
2021/09/13 15:20:04;;;;;;;3.33;2.30;;;;;;;27.80;33.11;100208.72;10237151;28;20055;-63
2021/09/13 15:25:08;;;;;;;3.00;1.90;;;;;;;27.47;33.65;100197.34;10249449;28;20707;-62
2021/09/13 15:30:11;;;;;;;2.30;2.10;;;;;;;27.29;34.32;100191.91;10247464;28;20039;-62
2021/09/13 15:35:12;;;;;;;3.40;2.50;;;;;;;27.11;34.30;100185.50;10250007;28;20055;-62
2021/09/13 15:40:14;;;;;;;2.97;2.30;;;;;;;26.37;36.02;100173.94;10272840;28;20137;-62
2021/09/13 15:45:16;;;;;;;3.58;2.42;;;;;;;26.45;36.18;100182.63;10283812;28;20128;-62
2021/09/13 15:50:17;;;;;;;2.33;2.13;;;;;;;26.45;35.87;100171.72;10286390;28;20137;-62
2021/09/13 15:55:19;;;;;;;3.20;2.28;;;;;;;26.39;36.01;100174.53;10282521;28;20078;-62
2021/09/13 16:00:20;;;;;;;3.28;2.15;;;;;;;26.07;36.95;100161.91;10282384;28;20153;-62
2021/09/13 16:05:22;;;;;;;3.38;2.42;;;;;;;26.08;36.85;100166.31;10269982;28;20126;-62
2021/09/13 16:10:23;;;;;;;3.75;2.70;;;;;;;26.04;37.61;100159.63;10244609;28;20068;-62
2021/09/13 16:15:25;;;;;;;3.08;2.70;;;;;;;25.94;38.06;100156.56;10244940;28;20413;-62
2021/09/13 16:20:28;;;;;;;2.58;2.20;;;;;;;25.57;37.23;100148.38;10244882;28;20125;-62
2021/09/13 16:25:29;;;;;;;5.07;2.42;;;;;;;25.54;38.61;100151.56;10233271;28;20082;-62
2021/09/13 16:30:31;;;;;;;3.42;2.38;;;;;;;25.38;39.37;100139.34;10248763;28;20053;-62
2021/09/13 16:35:35;;;;;;;3.00;2.53;;;;;;;25.39;39.44;100165.53;10258497;28;20070;-62
2021/09/13 16:40:38;;;;;;;3.97;2.83;;;;;;;25.31;40.15;100172.09;10283618;28;20133;-62
2021/09/13 16:45:40;;;;;;;3.10;2.25;;;;;;;25.24;40.33;100174.84;10282698;28;20141;-62
2021/09/13 16:50:41;;;;;;;2.42;2.22;;;;;;;24.99;40.77;100161.19;10280128;28;20468;-62
2021/09/13 16:55:43;;;;;;;2.65;2.45;;;;;;;24.85;40.72;100178.69;10267046;28;20201;-63
2021/09/13 17:00:44;;;;;;;3.88;2.42;;;;;;;24.72;40.66;100176.06;10279316;28;20848;-62
2021/09/13 17:05:46;;;;;;;3.30;2.45;;;;;;;24.63;41.86;100184.47;10281241;28;20057;-63
2021/09/13 17:10:47;;;;;;;2.95;2.75;;;;;;;24.53;42.20;100181.38;10280659;28;20059;-64
2021/09/13 17:15:49;;;;;;;5.35;2.55;;;;;;;24.35;42.76;100171.22;10280451;28;20077;-65
2021/09/13 17:20:50;;;;;;;5.05;3.45;;;;;;;24.15;43.33;100146.81;10248344;28;20066;-62
2021/09/13 17:25:52;;;;;;;3.63;2.83;;;;;;;23.97;43.38;100156.47;10242631;28;20095;-62
2021/09/13 17:30:55;;;;;;;3.65;2.83;;;;;;;23.88;43.43;100146.91;10240075;28;20050;-63
2021/09/13 17:35:56;;;;;;;4.22;2.72;;;;;;;23.77;43.85;100161.94;10243865;28;20047;-61
2021/09/13 17:40:58;;;;;;;3.13;2.53;;;;;;;23.63;44.35;100155.72;10260456;28;20070;-61
2021/09/13 17:46:00;;;;;;;3.03;2.72;;;;;;;23.52;44.82;100142.75;10269680;28;20038;-62
2021/09/13 17:51:04;;;;;;;3.33;2.88;;;;;;;23.39;44.82;100148.22;10258643;28;20085;-65
2021/09/13 17:56:06;;;;;;;8.30;3.22;;;;;;;23.27;45.58;100148.84;10281173;28;20046;-62
2021/09/13 18:01:07;;;;;;;4.05;3.20;;;;;;;23.14;46.18;100142.59;10281905;28;20116;-62
2021/09/13 18:06:10;;;;;;;3.00;2.75;;;;;;;23.08;45.94;100163.25;10282299;28;20058;-64
2021/09/13 18:11:12;;;;;;;3.80;2.77;;;;;;;22.97;46.09;100158.41;10286095;28;20121;-63
2021/09/13 18:16:14;;;;;;;3.73;3.00;;;;;;;22.90;45.73;100151.09;10277066;28;20066;-64
2021/09/13 18:21:15;;;;;;;3.65;2.88;;;;;;;22.78;46.60;100164.44;10278711;28;20050;-61
2021/09/13 18:26:17;;;;;;;2.63;2.42;;;;;;;22.74;46.96;100151.50;10280222;28;20133;-63
2021/09/13 18:31:19;;;;;;;4.35;3.00;;;;;;;22.63;46.73;100161.09;10278922;28;20138;-61
2021/09/13 18:36:23;;;;;;;2.53;2.33;;;;;;;22.55;46.76;100148.53;10280218;28;20064;-63
2021/09/13 18:41:24;;;;;;;4.32;3.30;;;;;;;22.49;46.95;100153.94;10248977;28;20101;-63
2021/09/13 18:46:26;;;;;;;5.90;3.92;;;;;;;22.42;47.39;100159.34;10239013;28;20142;-63
2021/09/13 18:51:27;;;;;;;4.80;3.70;;;;;;;22.30;47.69;100145.50;10236911;28;20043;-62
2021/09/13 18:56:29;;;;;;;5.07;2.97;;;;;;;22.30;47.82;100150.94;10237230;28;20540;-60
2021/09/13 19:01:30;;;;;;;4.07;2.60;;;;;;;22.20;48.76;100156.75;10238456;28;20532;-57
2021/09/13 19:06:32;;;;;;;3.05;2.75;;;;;;;22.24;48.88;100163.41;10260268;28;21717;-57
2021/09/13 19:11:34;;;;;;;4.88;4.10;;;;;;;22.11;49.43;100157.94;10244983;28;20598;-57
2021/09/13 19:16:35;;;;;;;5.20;3.92;;;;;;;21.92;51.21;100177.66;10239117;28;20152;-57
2021/09/13 19:21:37;;;;;;;4.88;4.38;;;;;;;21.76;51.37;100170.69;10239586;28;20142;-57
2021/09/13 19:26:38;;;;;;;7.32;4.90;;;;;;;21.46;52.96;100177.13;10232876;28;20149;-56
2021/09/13 19:31:40;;;;;;;4.63;3.80;;;;;;;21.61;53.11;100173.50;10234691;28;20482;-56
2021/09/13 19:36:41;;;;;;;5.85;4.35;;;;;;;21.30;53.21;100185.53;10236786;28;20074;-57
2021/09/13 19:41:43;;;;;;;3.95;3.65;;;;;;;21.30;54.51;100178.25;10273127;28;20053;-57
2021/09/13 19:46:45;;;;;;;6.13;4.45;;;;;;;21.52;53.79;100179.06;10277102;28;20495;-55
2021/09/13 19:51:46;;;;;;;4.20;3.80;;;;;;;21.64;52.97;100181.25;10264368;28;20055;-58
2021/09/13 19:56:48;;;;;;;5.28;4.30;;;;;;;21.62;54.13;100178.72;10265318;28;20222;-57
2021/09/13 20:01:49;;;;;;;7.22;5.45;;;;;;;21.58;54.07;100185.56;10242092;28;20142;-62
2021/09/13 20:06:52;;;;;;;10.52;8.27;;;;;;;21.46;53.68;100182.53;10235425;28;20053;-62
2021/09/13 20:11:53;;;;;;;5.40;4.90;;;;;;;21.31;54.67;100185.31;10280438;28;20077;-65
2021/09/13 20:16:59;;;;;;;5.18;4.68;;;;;;;21.22;54.94;100185.69;10278096;28;20055;-61
2021/09/13 20:22:02;;;;;;;5.00;4.55;;;;;;;21.12;55.16;100191.41;10249446;28;20413;-63
2021/09/13 20:27:03;;;;;;;4.83;4.40;;;;;;;21.05;55.65;100188.66;10289904;28;20136;-61
2021/09/13 20:32:05;;;;;;;5.85;4.93;;;;;;;21.01;55.77;100184.66;10297102;28;20054;-60
2021/09/13 20:37:07;;;;;;;6.60;4.68;;;;;;;20.97;56.10;100188.75;10298205;28;20479;-60
2021/09/13 20:42:13;;;;;;;7.68;4.90;;;;;;;20.89;56.39;100164.56;10301767;28;20046;-59
2021/09/13 20:47:14;;;;;;;5.78;5.28;;;;;;;20.92;56.51;100194.75;10297305;28;20495;-63
2021/09/13 20:52:16;;;;;;;5.18;4.65;;;;;;;20.82;56.92;100180.72;10296103;28;20080;-60
2021/09/13 20:57:17;;;;;;;5.97;5.45;;;;;;;20.78;56.91;100185.69;10296834;28;20569;-61
2021/09/13 21:02:18;;;;;;;6.57;5.93;;;;;;;20.76;57.26;100187.75;10297022;28;20046;-61
2021/09/13 21:07:20;;;;;;;6.45;4.93;;;;;;;20.65;57.78;100185.50;10303194;28;20472;-60
2021/09/13 21:12:22;;;;;;;6.60;5.07;;;;;;;20.60;58.02;100180.66;10299254;28;20050;-63
2021/09/13 21:17:23;;;;;;;5.35;4.85;;;;;;;20.54;58.52;100173.31;10294102;28;22301;-60
2021/09/13 21:22:27;;;;;;;7.70;5.72;;;;;;;20.49;58.97;100179.31;10265767;28;20039;-60
2021/09/13 21:27:29;;;;;;;5.80;5.30;;;;;;;20.39;59.39;100177.94;10255387;28;20054;-64
2021/09/13 21:32:31;;;;;;;5.57;5.07;;;;;;;20.30;59.44;100166.41;10252896;28;20070;-61
2021/09/13 21:37:32;;;;;;;5.38;4.88;;;;;;;20.29;59.67;100170.13;10256946;28;20765;-61
2021/09/13 21:42:34;;;;;;;5.82;5.05;;;;;;;20.20;59.84;100165.84;10291073;28;20279;-62
2021/09/13 21:47:35;;;;;;;5.45;4.95;;;;;;;20.19;60.03;100175.81;10276562;28;20066;-61
2021/09/13 21:52:37;;;;;;;5.70;5.07;;;;;;;20.13;60.12;100177.41;10253617;28;20551;-62
2021/09/13 21:57:38;;;;;;;6.50;5.88;;;;;;;20.06;60.34;100181.06;10255078;28;20105;-61
2021/09/13 22:02:40;;;;;;;6.75;5.30;;;;;;;20.04;60.50;100183.94;10251939;28;20070;-62
2021/09/13 22:07:42;;;;;;;6.43;5.82;;;;;;;20.04;60.28;100181.25;10243293;28;20055;-60
2021/09/13 22:12:43;;;;;;;5.80;5.30;;;;;;;19.97;60.25;100174.91;10269519;28;20497;-59
2021/09/13 22:17:45;;;;;;;5.20;4.68;;;;;;;19.93;60.50;100179.00;10252238;28;20138;-60
2021/09/13 22:22:46;;;;;;;5.80;5.30;;;;;;;19.95;60.35;100185.91;10253900;28;20050;-62
2021/09/13 22:27:48;;;;;;;5.55;5.15;;;;;;;19.87;60.20;100179.75;10256329;28;20098;-64
2021/09/13 22:32:49;;;;;;;9.23;5.43;;;;;;;19.90;60.39;100188.31;10257658;28;20606;-64
2021/09/13 22:37:51;;;;;;;5.85;5.35;;;;;;;19.93;59.97;100187.09;10260569;28;20074;-62
2021/09/13 22:42:52;;;;;;;5.15;4.68;;;;;;;19.85;59.91;100188.03;10255546;28;20074;-62
2021/09/13 22:47:53;;;;;;;6.00;5.50;;;;;;;19.73;59.92;100176.81;10278805;28;20042;-63
2021/09/13 22:52:55;;;;;;;6.97;5.72;;;;;;;19.75;60.26;100190.13;10283252;28;20054;-62
2021/09/13 22:57:56;;;;;;;5.35;4.85;;;;;;;19.71;60.26;100183.41;10265156;28;20075;-62
2021/09/13 23:02:58;;;;;;;6.13;4.93;;;;;;;19.69;60.60;100180.91;10253598;28;20047;-61
2021/09/13 23:08:00;;;;;;;6.18;5.43;;;;;;;19.70;60.34;100165.56;10247542;28;20043;-61
2021/09/13 23:13:02;;;;;;;5.55;5.05;;;;;;;19.70;60.50;100173.66;10268323;28;20082;-58
2021/09/13 23:18:04;;;;;;;8.32;5.15;;;;;;;19.65;60.24;100168.81;10289815;28;20084;-62
2021/09/13 23:23:05;;;;;;;6.22;5.00;;;;;;;19.63;60.19;100165.44;10286581;28;20089;-61